sensor_id;sensor_type;location;lat;lon;timestamp;pressure;altitude;pressure_sealevel;temperature;humidity
64521;BME280;50896;46.714;17.322;2022-11-24T00:01:10;99605.28;;;4.16;100.00
64521;BME280;50896;46.714;17.322;2022-11-24T00:03:37;99609.03;;;4.14;100.00
64521;BME280;50896;46.714;17.322;2022-11-24T00:06:06;99614.97;;;4.16;100.00
64521;BME280;50896;46.714;17.322;2022-11-24T00:08:34;99613.31;;;4.15;100.00
64521;BME280;50896;46.714;17.322;2022-11-24T00:11:09;99620.94;;;4.18;100.00
64521;BME280;50896;46.714;17.322;2022-11-24T00:13:37;99620.13;;;4.17;100.00
64521;BME280;50896;46.714;17.322;2022-11-24T00:18:46;99632.41;;;4.17;100.00
64521;BME280;50896;46.714;17.322;2022-11-24T00:21:14;99626.34;;;4.16;100.00
64521;BME280;50896;46.714;17.322;2022-11-24T00:23:42;99628.97;;;4.16;100.00
64521;BME280;50896;46.714;17.322;2022-11-24T00:26:11;99633.66;;;4.13;100.00
64521;BME280;50896;46.714;17.322;2022-11-24T00:28:39;99631.88;;;4.13;100.00
64521;BME280;50896;46.714;17.322;2022-11-24T00:31:30;99635.34;;;4.14;100.00
64521;BME280;50896;46.714;17.322;2022-11-24T00:34:00;99633.00;;;4.10;100.00
64521;BME280;50896;46.714;17.322;2022-11-24T00:36:29;99639.06;;;4.11;100.00
64521;BME280;50896;46.714;17.322;2022-11-24T00:39:01;99639.22;;;4.09;100.00
64521;BME280;50896;46.714;17.322;2022-11-24T00:41:28;99653.03;;;4.11;100.00
64521;BME280;50896;46.714;17.322;2022-11-24T00:43:56;99657.63;;;4.09;100.00
64521;BME280;50896;46.714;17.322;2022-11-24T00:46:24;99654.28;;;4.07;100.00
64521;BME280;50896;46.714;17.322;2022-11-24T00:48:51;99663.03;;;4.08;100.00
64521;BME280;50896;46.714;17.322;2022-11-24T00:51:22;99662.31;;;4.06;100.00
64521;BME280;50896;46.714;17.322;2022-11-24T00:53:49;99660.41;;;4.08;100.00
64521;BME280;50896;46.714;17.322;2022-11-24T00:56:16;99667.59;;;4.06;100.00
64521;BME280;50896;46.714;17.322;2022-11-24T00:58:42;99670.22;;;4.06;100.00
64521;BME280;50896;46.714;17.322;2022-11-24T01:01:15;99672.16;;;4.04;100.00
64521;BME280;50896;46.714;17.322;2022-11-24T01:03:43;99675.75;;;4.03;100.00
64521;BME280;50896;46.714;17.322;2022-11-24T01:06:13;99677.56;;;4.02;100.00
64521;BME280;50896;46.714;17.322;2022-11-24T01:08:40;99670.63;;;4.11;100.00
64521;BME280;50896;46.714;17.322;2022-11-24T01:13:47;99671.06;;;4.06;100.00
64521;BME280;50896;46.714;17.322;2022-11-24T01:16:18;99674.38;;;4.08;100.00
64521;BME280;50896;46.714;17.322;2022-11-24T01:18:46;99685.84;;;4.07;100.00
64521;BME280;50896;46.714;17.322;2022-11-24T01:21:14;99681.59;;;4.06;100.00
64521;BME280;50896;46.714;17.322;2022-11-24T01:23:41;99688.91;;;4.03;100.00
64521;BME280;50896;46.714;17.322;2022-11-24T01:26:10;99684.91;;;4.08;100.00
64521;BME280;50896;46.714;17.322;2022-11-24T01:28:37;99692.13;;;4.16;100.00
64521;BME280;50896;46.714;17.322;2022-11-24T01:31:12;99680.72;;;4.25;100.00
64521;BME280;50896;46.714;17.322;2022-11-24T01:33:39;99676.72;;;4.31;100.00
64521;BME280;50896;46.714;17.322;2022-11-24T01:36:06;99680.88;;;4.34;100.00
64521;BME280;50896;46.714;17.322;2022-11-24T01:38:33;99688.63;;;4.35;100.00
64521;BME280;50896;46.714;17.322;2022-11-24T01:41:09;99683.91;;;4.39;100.00
64521;BME280;50896;46.714;17.322;2022-11-24T01:43:37;99680.47;;;4.38;100.00
64521;BME280;50896;46.714;17.322;2022-11-24T01:51:34;99681.72;;;4.34;100.00
64521;BME280;50896;46.714;17.322;2022-11-24T01:54:24;99676.31;;;4.36;100.00
64521;BME280;50896;46.714;17.322;2022-11-24T01:56:57;99687.25;;;4.31;100.00
64521;BME280;50896;46.714;17.322;2022-11-24T01:59:25;99685.31;;;4.33;100.00
64521;BME280;50896;46.714;17.322;2022-11-24T02:01:53;99682.69;;;4.33;100.00
64521;BME280;50896;46.714;17.322;2022-11-24T02:04:25;99692.50;;;4.31;100.00
64521;BME280;50896;46.714;17.322;2022-11-24T02:06:55;99693.88;;;4.35;100.00
64521;BME280;50896;46.714;17.322;2022-11-24T02:09:28;99692.25;;;4.34;100.00
64521;BME280;50896;46.714;17.322;2022-11-24T02:11:58;99696.41;;;4.37;100.00
64521;BME280;50896;46.714;17.322;2022-11-24T02:14:26;99701.66;;;4.37;100.00
64521;BME280;50896;46.714;17.322;2022-11-24T02:16:53;99700.00;;;4.36;100.00
64521;BME280;50896;46.714;17.322;2022-11-24T02:19:27;99695.56;;;4.36;100.00
64521;BME280;50896;46.714;17.322;2022-11-24T02:21:59;99702.63;;;4.45;100.00
64521;BME280;50896;46.714;17.322;2022-11-24T02:27:12;99704.31;;;4.37;100.00
64521;BME280;50896;46.714;17.322;2022-11-24T02:29:38;99696.94;;;4.40;100.00
64521;BME280;50896;46.714;17.322;2022-11-24T02:32:07;99692.63;;;4.49;100.00
64521;BME280;50896;46.714;17.322;2022-11-24T02:34:35;99695.38;;;4.57;100.00
64521;BME280;50896;46.714;17.322;2022-11-24T02:37:02;99697.75;;;4.51;100.00
64521;BME280;50896;46.714;17.322;2022-11-24T02:39:29;99696.66;;;4.43;100.00
64521;BME280;50896;46.714;17.322;2022-11-24T02:41:58;99693.75;;;4.47;100.00
64521;BME280;50896;46.714;17.322;2022-11-24T02:44:30;99689.47;;;4.45;100.00
64521;BME280;50896;46.714;17.322;2022-11-24T02:47:06;99686.56;;;4.39;100.00
64521;BME280;50896;46.714;17.322;2022-11-24T02:49:34;99680.84;;;4.43;100.00
64521;BME280;50896;46.714;17.322;2022-11-24T02:52:01;99678.50;;;4.50;100.00
64521;BME280;50896;46.714;17.322;2022-11-24T02:54:28;99678.22;;;4.43;100.00
64521;BME280;50896;46.714;17.322;2022-11-24T02:56:55;99674.06;;;4.41;100.00
64521;BME280;50896;46.714;17.322;2022-11-24T02:59:22;99676.47;;;4.34;100.00
64521;BME280;50896;46.714;17.322;2022-11-24T03:01:49;99685.75;;;4.28;100.00
64521;BME280;50896;46.714;17.322;2022-11-24T03:04:16;99689.75;;;4.23;100.00
64521;BME280;50896;46.714;17.322;2022-11-24T03:06:43;99687.81;;;4.25;100.00
64521;BME280;50896;46.714;17.322;2022-11-24T03:09:10;99685.19;;;4.25;100.00
64521;BME280;50896;46.714;17.322;2022-11-24T03:11:39;99694.03;;;4.24;100.00
64521;BME280;50896;46.714;17.322;2022-11-24T03:14:06;99689.75;;;4.23;100.00
64521;BME280;50896;46.714;17.322;2022-11-24T03:16:33;99694.75;;;4.26;100.00
64521;BME280;50896;46.714;17.322;2022-11-24T03:19:01;99698.06;;;4.28;100.00
64521;BME280;50896;46.714;17.322;2022-11-24T03:21:28;99700.00;;;4.16;100.00
64521;BME280;50896;46.714;17.322;2022-11-24T03:23:55;99704.03;;;4.20;100.00
64521;BME280;50896;46.714;17.322;2022-11-24T03:26:23;99701.09;;;4.23;100.00
64521;BME280;50896;46.714;17.322;2022-11-24T03:28:54;99703.16;;;4.20;100.00
64521;BME280;50896;46.714;17.322;2022-11-24T03:31:22;99704.84;;;4.21;100.00
64521;BME280;50896;46.714;17.322;2022-11-24T03:33:49;99702.91;;;4.13;100.00
64521;BME280;50896;46.714;17.322;2022-11-24T03:36:16;99700.28;;;4.13;100.00
64521;BME280;50896;46.714;17.322;2022-11-24T03:38:43;99710.53;;;4.06;100.00
64521;BME280;50896;46.714;17.322;2022-11-24T03:41:10;99705.53;;;3.93;100.00
64521;BME280;50896;46.714;17.322;2022-11-24T03:43:37;99712.28;;;3.86;100.00
64521;BME280;50896;46.714;17.322;2022-11-24T03:46:10;99712.56;;;3.93;100.00
64521;BME280;50896;46.714;17.322;2022-11-24T03:48:37;99725.06;;;4.01;100.00
64521;BME280;50896;46.714;17.322;2022-11-24T03:51:05;99729.06;;;3.95;100.00
64521;BME280;50896;46.714;17.322;2022-11-24T03:53:32;99715.91;;;3.95;100.00
64521;BME280;50896;46.714;17.322;2022-11-24T03:55:59;99738.44;;;3.88;100.00
64521;BME280;50896;46.714;17.322;2022-11-24T03:58:27;99729.06;;;3.95;100.00
64521;BME280;50896;46.714;17.322;2022-11-24T04:00:55;99737.34;;;3.90;100.00
64521;BME280;50896;46.714;17.322;2022-11-24T04:03:22;99741.78;;;4.00;100.00
64521;BME280;50896;46.714;17.322;2022-11-24T04:05:49;99742.22;;;3.95;100.00
64521;BME280;50896;46.714;17.322;2022-11-24T04:08:16;99741.38;;;3.94;100.00
64521;BME280;50896;46.714;17.322;2022-11-24T04:10:43;99737.94;;;4.04;100.00
64521;BME280;50896;46.714;17.322;2022-11-24T04:13:13;99743.06;;;4.05;100.00
64521;BME280;50896;46.714;17.322;2022-11-24T04:15:40;99738.50;;;4.17;100.00
64521;BME280;50896;46.714;17.322;2022-11-24T04:18:09;99735.16;;;4.05;100.00
64521;BME280;50896;46.714;17.322;2022-11-24T04:20:36;99736.56;;;4.09;100.00
64521;BME280;50896;46.714;17.322;2022-11-24T04:23:03;99735.84;;;4.07;100.00
64521;BME280;50896;46.714;17.322;2022-11-24T04:25:30;99747.34;;;4.06;100.00
64521;BME280;50896;46.714;17.322;2022-11-24T04:27:57;99748.72;;;4.01;100.00
64521;BME280;50896;46.714;17.322;2022-11-24T04:30:25;99758.97;;;3.94;100.00
64521;BME280;50896;46.714;17.322;2022-11-24T04:32:52;99762.25;;;3.96;100.00
64521;BME280;50896;46.714;17.322;2022-11-24T04:35:19;99767.66;;;3.94;100.00
64521;BME280;50896;46.714;17.322;2022-11-24T04:37:46;99773.22;;;4.01;100.00
64521;BME280;50896;46.714;17.322;2022-11-24T04:40:13;99781.69;;;4.05;100.00
64521;BME280;50896;46.714;17.322;2022-11-24T04:42:40;99782.50;;;3.96;100.00
64521;BME280;50896;46.714;17.322;2022-11-24T04:45:07;99784.13;;;3.87;100.00
64521;BME280;50896;46.714;17.322;2022-11-24T04:47:34;99791.44;;;3.83;100.00
64521;BME280;50896;46.714;17.322;2022-11-24T04:50:00;99793.50;;;3.70;100.00
64521;BME280;50896;46.714;17.322;2022-11-24T04:52:28;99802.84;;;3.63;100.00
64521;BME280;50896;46.714;17.322;2022-11-24T04:54:55;99801.63;;;3.67;100.00
64521;BME280;50896;46.714;17.322;2022-11-24T04:57:24;99812.69;;;3.61;100.00
64521;BME280;50896;46.714;17.322;2022-11-24T04:59:51;99820.13;;;3.55;100.00
64521;BME280;50896;46.714;17.322;2022-11-24T05:02:19;99820.25;;;3.54;100.00
64521;BME280;50896;46.714;17.322;2022-11-24T05:04:46;99833.66;;;3.51;100.00
64521;BME280;50896;46.714;17.322;2022-11-24T05:07:13;99838.47;;;3.46;100.00
64521;BME280;50896;46.714;17.322;2022-11-24T05:09:45;99837.84;;;3.53;100.00
64521;BME280;50896;46.714;17.322;2022-11-24T05:12:31;99841.75;;;3.59;100.00
64521;BME280;50896;46.714;17.322;2022-11-24T05:14:58;99847.94;;;3.58;100.00
64521;BME280;50896;46.714;17.322;2022-11-24T05:17:30;99851.97;;;3.62;100.00
64521;BME280;50896;46.714;17.322;2022-11-24T05:19:57;99847.72;;;3.71;100.00
64521;BME280;50896;46.714;17.322;2022-11-24T05:22:24;99852.47;;;3.77;100.00
64521;BME280;50896;46.714;17.322;2022-11-24T05:24:51;99852.84;;;3.72;100.00
64521;BME280;50896;46.714;17.322;2022-11-24T05:27:18;99861.00;;;3.69;100.00
64521;BME280;50896;46.714;17.322;2022-11-24T05:29:45;99858.91;;;3.63;100.00
64521;BME280;50896;46.714;17.322;2022-11-24T05:32:11;99858.72;;;3.55;100.00
64521;BME280;50896;46.714;17.322;2022-11-24T05:34:38;99850.13;;;3.53;100.00
64521;BME280;50896;46.714;17.322;2022-11-24T05:37:05;99865.03;;;3.42;100.00
64521;BME280;50896;46.714;17.322;2022-11-24T05:39:33;99853.59;;;3.53;100.00
64521;BME280;50896;46.714;17.322;2022-11-24T05:42:01;99869.19;;;3.45;100.00
64521;BME280;50896;46.714;17.322;2022-11-24T05:44:47;99870.28;;;3.42;100.00
64521;BME280;50896;46.714;17.322;2022-11-24T05:47:14;99870.75;;;3.27;100.00
64521;BME280;50896;46.714;17.322;2022-11-24T05:49:41;99869.00;;;3.16;100.00
64521;BME280;50896;46.714;17.322;2022-11-24T05:52:08;99880.94;;;3.20;100.00
64521;BME280;50896;46.714;17.322;2022-11-24T05:54:35;99883.44;;;3.21;100.00
64521;BME280;50896;46.714;17.322;2022-11-24T05:57:02;99890.97;;;3.15;100.00
64521;BME280;50896;46.714;17.322;2022-11-24T05:59:28;99891.31;;;3.21;100.00
64521;BME280;50896;46.714;17.322;2022-11-24T06:01:55;99900.78;;;3.13;100.00
64521;BME280;50896;46.714;17.322;2022-11-24T06:04:22;99908.22;;;3.07;100.00
64521;BME280;50896;46.714;17.322;2022-11-24T06:06:49;99908.00;;;2.99;100.00
64521;BME280;50896;46.714;17.322;2022-11-24T06:09:16;99921.38;;;2.96;100.00
64521;BME280;50896;46.714;17.322;2022-11-24T06:11:43;99921.38;;;2.96;100.00
64521;BME280;50896;46.714;17.322;2022-11-24T06:14:09;99928.53;;;2.94;100.00
64521;BME280;50896;46.714;17.322;2022-11-24T06:16:37;99921.50;;;2.95;100.00
64521;BME280;50896;46.714;17.322;2022-11-24T06:19:04;99928.94;;;2.89;100.00
64521;BME280;50896;46.714;17.322;2022-11-24T06:21:30;99934.06;;;2.91;100.00
64521;BME280;50896;46.714;17.322;2022-11-24T06:23:57;99943.59;;;2.92;100.00
64521;BME280;50896;46.714;17.322;2022-11-24T06:26:24;99951.47;;;2.92;100.00
64521;BME280;50896;46.714;17.322;2022-11-24T06:28:51;99947.91;;;2.93;100.00
64521;BME280;50896;46.714;17.322;2022-11-24T06:31:17;99956.22;;;2.98;100.00
64521;BME280;50896;46.714;17.322;2022-11-24T06:33:44;99965.91;;;2.98;100.00
64521;BME280;50896;46.714;17.322;2022-11-24T06:36:12;99956.81;;;3.02;100.00
64521;BME280;50896;46.714;17.322;2022-11-24T06:38:39;99964.44;;;3.05;100.00
64521;BME280;50896;46.714;17.322;2022-11-24T06:41:09;99965.72;;;3.11;100.00
64521;BME280;50896;46.714;17.322;2022-11-24T06:43:37;99968.97;;;3.14;100.00
64521;BME280;50896;46.714;17.322;2022-11-24T06:46:04;99963.72;;;3.14;100.00
64521;BME280;50896;46.714;17.322;2022-11-24T06:48:31;99966.47;;;3.13;100.00
64521;BME280;50896;46.714;17.322;2022-11-24T06:51:04;99972.66;;;3.12;100.00
64521;BME280;50896;46.714;17.322;2022-11-24T06:53:32;99973.06;;;3.07;100.00
64521;BME280;50896;46.714;17.322;2022-11-24T06:56:05;99971.00;;;3.11;100.00
64521;BME280;50896;46.714;17.322;2022-11-24T06:58:44;99982.88;;;3.26;100.00
64521;BME280;50896;46.714;17.322;2022-11-24T07:01:16;99989.28;;;3.33;100.00
64521;BME280;50896;46.714;17.322;2022-11-24T07:03:43;99998.59;;;3.37;100.00
64521;BME280;50896;46.714;17.322;2022-11-24T07:06:10;99990.34;;;3.42;100.00
64521;BME280;50896;46.714;17.322;2022-11-24T07:08:37;99997.09;;;3.56;100.00
64521;BME280;50896;46.714;17.322;2022-11-24T07:11:05;100005.06;;;3.66;100.00
64521;BME280;50896;46.714;17.322;2022-11-24T07:13:32;100005.34;;;3.72;100.00
64521;BME280;50896;46.714;17.322;2022-11-24T07:16:05;100005.81;;;3.78;100.00
64521;BME280;50896;46.714;17.322;2022-11-24T07:18:35;100008.50;;;3.87;100.00
64521;BME280;50896;46.714;17.322;2022-11-24T07:21:04;100021.97;;;3.94;100.00
64521;BME280;50896;46.714;17.322;2022-11-24T07:23:31;100020.94;;;4.06;100.00
64521;BME280;50896;46.714;17.322;2022-11-24T07:25:58;100023.91;;;4.13;100.00
64521;BME280;50896;46.714;17.322;2022-11-24T07:28:33;100032.22;;;4.18;100.00
64521;BME280;50896;46.714;17.322;2022-11-24T07:31:10;100040.16;;;4.28;100.00
64521;BME280;50896;46.714;17.322;2022-11-24T07:33:37;100041.28;;;4.35;100.00
64521;BME280;50896;46.714;17.322;2022-11-24T07:36:05;100043.97;;;4.45;100.00
64521;BME280;50896;46.714;17.322;2022-11-24T07:38:33;100038.75;;;4.55;100.00
64521;BME280;50896;46.714;17.322;2022-11-24T07:41:05;100038.50;;;4.58;100.00
64521;BME280;50896;46.714;17.322;2022-11-24T07:43:34;100039.16;;;4.50;100.00
64521;BME280;50896;46.714;17.322;2022-11-24T07:46:03;100047.47;;;4.45;100.00
64521;BME280;50896;46.714;17.322;2022-11-24T07:48:30;100045.25;;;4.51;100.00
64521;BME280;50896;46.714;17.322;2022-11-24T07:51:01;100047.63;;;4.54;100.00
64521;BME280;50896;46.714;17.322;2022-11-24T07:53:29;100049.03;;;4.58;100.00
64521;BME280;50896;46.714;17.322;2022-11-24T07:55:58;100057.22;;;4.65;100.00
64521;BME280;50896;46.714;17.322;2022-11-24T07:58:31;100065.00;;;4.66;100.00
64521;BME280;50896;46.714;17.322;2022-11-24T08:01:01;100060.97;;;4.62;100.00
64521;BME280;50896;46.714;17.322;2022-11-24T08:03:34;100065.38;;;4.61;100.00
64521;BME280;50896;46.714;17.322;2022-11-24T08:06:01;100071.06;;;4.57;100.00
64521;BME280;50896;46.714;17.322;2022-11-24T08:08:47;100067.34;;;4.59;100.00
64521;BME280;50896;46.714;17.322;2022-11-24T08:11:16;100066.25;;;4.62;100.00
64521;BME280;50896;46.714;17.322;2022-11-24T08:13:43;100077.50;;;4.74;100.00
64521;BME280;50896;46.714;17.322;2022-11-24T08:16:17;100082.13;;;4.82;100.00
64521;BME280;50896;46.714;17.322;2022-11-24T08:18:51;100084.94;;;4.90;100.00
64521;BME280;50896;46.714;17.322;2022-11-24T08:21:18;100085.19;;;4.96;100.00
64521;BME280;50896;46.714;17.322;2022-11-24T08:23:45;100065.34;;;4.92;100.00
64521;BME280;50896;46.714;17.322;2022-11-24T08:26:14;100075.91;;;5.02;100.00
64521;BME280;50896;46.714;17.322;2022-11-24T08:28:45;100081.00;;;5.25;100.00
64521;BME280;50896;46.714;17.322;2022-11-24T08:31:14;100085.44;;;5.44;100.00
64521;BME280;50896;46.714;17.322;2022-11-24T08:33:42;100083.53;;;5.56;100.00
64521;BME280;50896;46.714;17.322;2022-11-24T08:36:11;100080.59;;;5.59;100.00
64521;BME280;50896;46.714;17.322;2022-11-24T08:38:38;100086.00;;;5.47;100.00
64521;BME280;50896;46.714;17.322;2022-11-24T08:41:11;100089.47;;;5.38;100.00
64521;BME280;50896;46.714;17.322;2022-11-24T08:43:38;100099.31;;;5.36;100.00
64521;BME280;50896;46.714;17.322;2022-11-24T08:46:09;100088.50;;;5.39;100.00
64521;BME280;50896;46.714;17.322;2022-11-24T08:48:36;100095.75;;;5.67;100.00
64521;BME280;50896;46.714;17.322;2022-11-24T08:51:08;100096.56;;;5.87;100.00
64521;BME280;50896;46.714;17.322;2022-11-24T08:53:36;100104.50;;;5.87;100.00
64521;BME280;50896;46.714;17.322;2022-11-24T08:56:03;100102.28;;;5.82;100.00
64521;BME280;50896;46.714;17.322;2022-11-24T08:58:31;100108.38;;;5.82;100.00
64521;BME280;50896;46.714;17.322;2022-11-24T09:01:09;100111.59;;;5.76;100.00
64521;BME280;50896;46.714;17.322;2022-11-24T09:03:37;100106.97;;;5.78;100.00
64521;BME280;50896;46.714;17.322;2022-11-24T09:06:11;100109.63;;;5.69;100.00
64521;BME280;50896;46.714;17.322;2022-11-24T09:08:39;100112.13;;;5.70;100.00
64521;BME280;50896;46.714;17.322;2022-11-24T09:11:11;100116.84;;;5.76;100.00
64521;BME280;50896;46.714;17.322;2022-11-24T09:13:38;100123.63;;;5.79;100.00
64521;BME280;50896;46.714;17.322;2022-11-24T09:16:08;100118.50;;;5.77;100.00
64521;BME280;50896;46.714;17.322;2022-11-24T09:18:36;100118.50;;;5.77;100.00
64521;BME280;50896;46.714;17.322;2022-11-24T09:21:07;100115.72;;;5.79;100.00
64521;BME280;50896;46.714;17.322;2022-11-24T09:23:34;100112.84;;;5.72;100.00
64521;BME280;50896;46.714;17.322;2022-11-24T09:26:05;100117.41;;;5.80;100.00
64521;BME280;50896;46.714;17.322;2022-11-24T09:28:33;100121.00;;;5.89;100.00
64521;BME280;50896;46.714;17.322;2022-11-24T09:31:05;100128.66;;;5.92;100.00
64521;BME280;50896;46.714;17.322;2022-11-24T09:33:32;100122.13;;;5.96;100.00
64521;BME280;50896;46.714;17.322;2022-11-24T09:36:00;100132.13;;;5.92;100.00
64521;BME280;50896;46.714;17.322;2022-11-24T09:38:28;100140.84;;;5.93;100.00
64521;BME280;50896;46.714;17.322;2022-11-24T09:40:55;100132.69;;;5.96;100.00
64521;BME280;50896;46.714;17.322;2022-11-24T09:43:38;100133.25;;;5.99;100.00
64521;BME280;50896;46.714;17.322;2022-11-24T09:48:42;100127.16;;;6.09;100.00
64521;BME280;50896;46.714;17.322;2022-11-24T09:51:13;100133.66;;;6.34;100.00
64521;BME280;50896;46.714;17.322;2022-11-24T09:53:49;100130.16;;;6.53;100.00
64521;BME280;50896;46.714;17.322;2022-11-24T09:56:26;100139.81;;;6.72;100.00
64521;BME280;50896;46.714;17.322;2022-11-24T10:01:36;100132.34;;;6.58;100.00
64521;BME280;50896;46.714;17.322;2022-11-24T10:04:15;100148.38;;;6.46;100.00
64521;BME280;50896;46.714;17.322;2022-11-24T10:09:57;100152.69;;;6.28;100.00
64521;BME280;50896;46.714;17.322;2022-11-24T10:12:40;100144.09;;;6.26;100.00
64521;BME280;50896;46.714;17.322;2022-11-24T10:15:36;100133.38;;;6.18;100.00
64521;BME280;50896;46.714;17.322;2022-11-24T10:21:34;100143.41;;;6.24;100.00
64521;BME280;50896;46.714;17.322;2022-11-24T10:26:36;100149.66;;;6.13;100.00
64521;BME280;50896;46.714;17.322;2022-11-24T10:29:19;100147.69;;;6.15;100.00
64521;BME280;50896;46.714;17.322;2022-11-24T10:32:03;100151.59;;;6.11;100.00
64521;BME280;50896;46.714;17.322;2022-11-24T10:34:34;100155.06;;;6.11;100.00
64521;BME280;50896;46.714;17.322;2022-11-24T10:42:57;100166.16;;;6.15;100.00
64521;BME280;50896;46.714;17.322;2022-11-24T10:45:26;100163.81;;;6.12;100.00
64521;BME280;50896;46.714;17.322;2022-11-24T10:47:53;100176.59;;;6.07;100.00
64521;BME280;50896;46.714;17.322;2022-11-24T10:50:30;100162.44;;;6.08;100.00
64521;BME280;50896;46.714;17.322;2022-11-24T10:53:02;100162.16;;;6.01;100.00
64521;BME280;50896;46.714;17.322;2022-11-24T10:56:03;100172.16;;;5.97;100.00
64521;BME280;50896;46.714;17.322;2022-11-24T10:58:35;100159.78;;;6.08;100.00
64521;BME280;50896;46.714;17.322;2022-11-24T11:01:20;100155.31;;;6.18;100.00
64521;BME280;50896;46.714;17.322;2022-11-24T11:03:51;100152.13;;;6.44;100.00
64521;BME280;50896;46.714;17.322;2022-11-24T11:06:21;100151.22;;;6.73;100.00
64521;BME280;50896;46.714;17.322;2022-11-24T11:08:49;100157.34;;;6.73;100.00
64521;BME280;50896;46.714;17.322;2022-11-24T11:11:29;100153.00;;;6.72;100.00
64521;BME280;50896;46.714;17.322;2022-11-24T11:14:01;100155.38;;;6.75;100.00
64521;BME280;50896;46.714;17.322;2022-11-24T11:16:52;100145.72;;;6.94;100.00
64521;BME280;50896;46.714;17.322;2022-11-24T11:22:28;100151.25;;;6.63;100.00
64521;BME280;50896;46.714;17.322;2022-11-24T11:27:39;100158.63;;;6.49;100.00
64521;BME280;50896;46.714;17.322;2022-11-24T11:30:25;100163.66;;;6.43;100.00
64521;BME280;50896;46.714;17.322;2022-11-24T11:33:32;100161.03;;;6.33;100.00
64521;BME280;50896;46.714;17.322;2022-11-24T11:36:22;100152.41;;;6.31;100.00
64521;BME280;50896;46.714;17.322;2022-11-24T11:38:49;100153.09;;;6.23;100.00
64521;BME280;50896;46.714;17.322;2022-11-24T11:41:20;100153.09;;;6.23;100.00
64521;BME280;50896;46.714;17.322;2022-11-24T11:43:59;100162.44;;;6.18;100.00
64521;BME280;50896;46.714;17.322;2022-11-24T11:46:29;100151.44;;;6.12;100.00
64521;BME280;50896;46.714;17.322;2022-11-24T11:48:57;100158.81;;;6.09;100.00
64521;BME280;50896;46.714;17.322;2022-11-24T11:51:39;100169.66;;;6.06;100.00
64521;BME280;50896;46.714;17.322;2022-11-24T12:05:01;100175.34;;;6.11;100.00
64521;BME280;50896;46.714;17.322;2022-11-24T12:15:30;100190.50;;;5.99;100.00
64521;BME280;50896;46.714;17.322;2022-11-24T12:27:00;100179.38;;;6.25;100.00
64521;BME280;50896;46.714;17.322;2022-11-24T12:37:41;100169.06;;;6.41;100.00
64521;BME280;50896;46.714;17.322;2022-11-24T12:41:04;100165.97;;;6.56;100.00
64521;BME280;50896;46.714;17.322;2022-11-24T12:43:52;100164.72;;;6.60;100.00
64521;BME280;50896;46.714;17.322;2022-11-24T12:46:34;100171.16;;;6.57;100.00
64521;BME280;50896;46.714;17.322;2022-11-24T12:51:39;100167.66;;;6.47;100.00
64521;BME280;50896;46.714;17.322;2022-11-24T12:54:17;100162.53;;;6.45;100.00
64521;BME280;50896;46.714;17.322;2022-11-24T12:56:54;100154.88;;;6.52;100.00
64521;BME280;50896;46.714;17.322;2022-11-24T13:04:58;100147.91;;;6.61;100.00
64521;BME280;50896;46.714;17.322;2022-11-24T13:07:41;100150.97;;;6.66;100.00
64521;BME280;50896;46.714;17.322;2022-11-24T13:13:11;100163.16;;;6.87;100.00
64521;BME280;50896;46.714;17.322;2022-11-24T13:26:48;100155.97;;;8.43;100.00
64521;BME280;50896;46.714;17.322;2022-11-24T13:29:35;100151.53;;;8.43;100.00
64521;BME280;50896;46.714;17.322;2022-11-24T13:53:32;100174.97;;;7.20;100.00
64521;BME280;50896;46.714;17.322;2022-11-24T13:58:37;100170.41;;;7.12;100.00
64521;BME280;50896;46.714;17.322;2022-11-24T14:04:22;100171.47;;;7.47;100.00
64521;BME280;50896;46.714;17.322;2022-11-24T14:07:06;100170.72;;;7.37;100.00
64521;BME280;50896;46.714;17.322;2022-11-24T14:09:42;100176.31;;;7.34;100.00
64521;BME280;50896;46.714;17.322;2022-11-24T14:12:18;100189.44;;;7.26;100.00
64521;BME280;50896;46.714;17.322;2022-11-24T14:14:50;100183.03;;;7.18;100.00
64521;BME280;50896;46.714;17.322;2022-11-24T14:17:21;100187.25;;;7.11;100.00
64521;BME280;50896;46.714;17.322;2022-11-24T14:19:51;100189.22;;;7.09;100.00
64521;BME280;50896;46.714;17.322;2022-11-24T14:22:22;100189.63;;;7.05;100.00
64521;BME280;50896;46.714;17.322;2022-11-24T14:24:59;100191.88;;;6.99;100.00
64521;BME280;50896;46.714;17.322;2022-11-24T14:27:28;100191.88;;;6.99;100.00
64521;BME280;50896;46.714;17.322;2022-11-24T14:30:00;100184.81;;;6.90;100.00
64521;BME280;50896;46.714;17.322;2022-11-24T14:32:27;100170.66;;;6.81;100.00
64521;BME280;50896;46.714;17.322;2022-11-24T14:34:54;100192.91;;;6.79;100.00
64521;BME280;50896;46.714;17.322;2022-11-24T14:37:22;100197.78;;;6.74;100.00
64521;BME280;50896;46.714;17.322;2022-11-24T14:39:49;100178.03;;;6.78;100.00
64521;BME280;50896;46.714;17.322;2022-11-24T14:42:21;100199.59;;;6.73;100.00
64521;BME280;50896;46.714;17.322;2022-11-24T14:44:57;100193.53;;;6.63;100.00
64521;BME280;50896;46.714;17.322;2022-11-24T14:47:30;100191.44;;;6.57;100.00
64521;BME280;50896;46.714;17.322;2022-11-24T14:50:09;100191.44;;;6.47;100.00
64521;BME280;50896;46.714;17.322;2022-11-24T14:52:46;100205.06;;;6.42;100.00
64521;BME280;50896;46.714;17.322;2022-11-24T14:57:50;100217.31;;;6.33;100.00
64521;BME280;50896;46.714;17.322;2022-11-24T15:02:55;100217.19;;;6.25;100.00
64521;BME280;50896;46.714;17.322;2022-11-24T15:05:50;100210.66;;;6.20;100.00
64521;BME280;50896;46.714;17.322;2022-11-24T15:08:18;100209.25;;;6.15;100.00
64521;BME280;50896;46.714;17.322;2022-11-24T15:10:45;100201.88;;;6.09;100.00
64521;BME280;50896;46.714;17.322;2022-11-24T15:13:18;100211.91;;;6.06;100.00